createdAt,value
2022-12-03T00:00:10.614Z,1.04
2022-12-03T00:01:05.334Z,1.04
2022-12-03T00:02:05.496Z,1.04
2022-12-03T00:03:05.732Z,1.04
2022-12-03T00:04:05.823Z,1.04
2022-12-03T00:05:05.916Z,1.04
2022-12-03T00:06:06.071Z,1.04
2022-12-03T00:07:06.214Z,1.04
2022-12-03T00:08:06.437Z,1.04
2022-12-03T00:09:06.470Z,1.04
2022-12-03T00:10:06.616Z,1.04
2022-12-03T00:11:06.788Z,1.04
2022-12-03T00:12:06.942Z,1.04
2022-12-03T00:13:07.072Z,1.04
2022-12-03T00:14:07.229Z,1.04
2022-12-03T00:15:07.873Z,1.04
2022-12-03T00:16:07.549Z,1.04
2022-12-03T00:17:07.627Z,1.04
2022-12-03T00:18:07.769Z,1.04
2022-12-03T00:19:07.930Z,1.04
2022-12-03T00:20:08.008Z,1.04
2022-12-03T00:21:08.129Z,1.04
2022-12-03T00:22:08.283Z,1.04
2022-12-03T00:23:08.431Z,1.04
2022-12-03T00:24:08.588Z,1.04
2022-12-03T00:25:08.744Z,1.04
2022-12-03T00:26:08.902Z,1.04
2022-12-03T00:27:09.037Z,1.04
2022-12-03T00:28:09.204Z,1.04
2022-12-03T00:29:09.345Z,1.04
2022-12-03T00:30:10.180Z,1.04
2022-12-03T00:31:09.653Z,1.04
2022-12-03T00:32:09.701Z,1.04
2022-12-03T00:33:09.839Z,1.04
2022-12-03T00:34:09.951Z,1.04
2022-12-03T00:35:10.105Z,1.04
2022-12-03T00:36:10.265Z,1.04
2022-12-03T00:37:10.421Z,1.04
2022-12-03T00:38:10.568Z,1.04
2022-12-03T00:39:10.705Z,1.04
2022-12-03T00:40:10.884Z,1.04
2022-12-03T00:41:11.018Z,1.04
2022-12-03T00:42:11.176Z,1.04
2022-12-03T00:43:11.323Z,1.04
2022-12-03T00:44:11.422Z,1.04
2022-12-03T00:45:12.190Z,1.04
2022-12-03T00:46:12.634Z,1.04
2022-12-03T00:47:11.864Z,1.04
2022-12-03T00:48:11.968Z,1.04
2022-12-03T00:49:12.149Z,1.04
2022-12-03T00:50:12.309Z,1.04
2022-12-03T00:51:12.403Z,1.04
2022-12-03T00:52:12.474Z,1.04
2022-12-03T00:53:12.629Z,1.04
2022-12-03T00:54:12.780Z,1.04
2022-12-03T00:55:12.888Z,1.04
2022-12-03T00:56:13.032Z,1.04
2022-12-03T00:57:13.182Z,1.04
2022-12-03T00:58:13.337Z,1.04
2022-12-03T00:59:13.488Z,1.04
2022-12-03T01:00:14.128Z,1.04
2022-12-03T01:01:13.742Z,1.04
2022-12-03T01:02:13.868Z,1.04
2022-12-03T01:03:13.886Z,1.04
2022-12-03T01:04:14.126Z,1.04
2022-12-03T01:05:14.234Z,1.04
2022-12-03T01:06:14.344Z,1.04
2022-12-03T01:07:14.449Z,1.04
2022-12-03T01:08:14.627Z,1.04
2022-12-03T01:09:14.697Z,1.04
2022-12-03T01:10:14.787Z,1.04
2022-12-03T01:11:14.964Z,1.04
2022-12-03T01:12:15.092Z,1.04
2022-12-03T01:13:15.186Z,1.04
2022-12-03T01:14:15.332Z,1.04
2022-12-03T01:15:15.445Z,1.04
2022-12-03T01:16:15.650Z,1.04
2022-12-03T01:17:15.756Z,1.04
2022-12-03T01:18:15.875Z,1.04
2022-12-03T01:19:16.158Z,1.04
2022-12-03T01:20:16.167Z,1.04
2022-12-03T01:21:16.273Z,1.04
2022-12-03T01:22:16.421Z,1.04
2022-12-03T01:23:16.594Z,1.04
2022-12-03T01:24:16.747Z,1.04
2022-12-03T01:25:16.877Z,1.04
2022-12-03T01:26:17.006Z,1.04
2022-12-03T01:27:17.137Z,1.04
2022-12-03T01:28:17.287Z,1.04
2022-12-03T01:29:17.448Z,1.04
2022-12-03T01:30:18.116Z,1.04
2022-12-03T01:31:17.809Z,1.04
2022-12-03T01:32:17.883Z,1.04
2022-12-03T01:33:17.988Z,1.04
2022-12-03T01:34:18.149Z,1.04
2022-12-03T01:35:18.290Z,1.04
2022-12-03T01:36:18.437Z,1.04
2022-12-03T01:37:18.591Z,1.04
2022-12-03T01:38:18.744Z,1.04
2022-12-03T01:39:18.895Z,1.04
2022-12-03T01:40:19.078Z,1.04
2022-12-03T01:41:19.200Z,1.04
2022-12-03T01:42:19.377Z,1.04
2022-12-03T01:43:19.529Z,1.04
2022-12-03T01:44:19.660Z,1.04
2022-12-03T01:45:20.343Z,1.04
2022-12-03T01:46:20.110Z,1.04
2022-12-03T01:47:20.111Z,1.04
2022-12-03T01:48:20.270Z,1.04
2022-12-03T01:49:20.418Z,1.04
2022-12-03T01:50:20.568Z,1.04
2022-12-03T01:51:20.695Z,1.04
2022-12-03T01:52:20.823Z,1.04
2022-12-03T01:53:20.916Z,1.04
2022-12-03T01:54:21.083Z,1.04
2022-12-03T01:55:21.238Z,1.04
2022-12-03T01:56:21.367Z,1.04
2022-12-03T01:57:21.527Z,1.04
2022-12-03T01:58:21.678Z,1.04
2022-12-03T01:59:21.778Z,1.04
2022-12-03T02:00:22.557Z,1.04
2022-12-03T02:01:22.124Z,1.04
2022-12-03T02:02:22.201Z,1.04
2022-12-03T02:03:22.356Z,1.04
2022-12-03T02:04:22.549Z,1.04
2022-12-03T02:05:22.628Z,1.04
2022-12-03T02:06:22.733Z,1.04
2022-12-03T02:07:22.885Z,1.04
2022-12-03T02:08:22.985Z,1.04
2022-12-03T02:09:23.140Z,1.04
2022-12-03T02:10:23.290Z,1.04
2022-12-03T02:11:23.437Z,1.04
2022-12-03T02:12:23.590Z,1.04
2022-12-03T02:13:23.712Z,1.04
2022-12-03T02:14:23.853Z,1.04
2022-12-03T02:15:24.569Z,1.04
2022-12-03T02:16:24.226Z,1.04
2022-12-03T02:17:24.297Z,1.04
2022-12-03T02:18:24.450Z,1.04
2022-12-03T02:19:24.628Z,1.04
2022-12-03T02:20:24.745Z,1.04
2022-12-03T02:21:24.868Z,1.04
2022-12-03T02:22:25.007Z,1.04
2022-12-03T02:23:25.113Z,1.04
2022-12-03T02:24:25.259Z,1.04
2022-12-03T02:25:25.418Z,1.04
2022-12-03T02:26:25.565Z,1.04
2022-12-03T02:27:25.707Z,1.04
2022-12-03T02:28:25.860Z,1.04
2022-12-03T02:29:26.022Z,1.04
2022-12-03T02:30:26.740Z,1.04
2022-12-03T02:31:26.306Z,1.04
2022-12-03T02:32:26.377Z,1.04
2022-12-03T02:33:26.526Z,1.04
2022-12-03T02:34:26.681Z,1.04
2022-12-03T02:35:26.785Z,1.04
2022-12-03T02:36:26.922Z,1.04
2022-12-03T02:37:27.085Z,1.04
2022-12-03T02:38:27.236Z,1.04
2022-12-03T02:39:27.377Z,1.04
2022-12-03T02:40:27.542Z,1.04
2022-12-03T02:41:27.624Z,1.04
2022-12-03T02:42:27.733Z,1.04
2022-12-03T02:43:27.891Z,1.04
2022-12-03T02:44:28.037Z,1.04
2022-12-03T02:45:28.762Z,1.04
2022-12-03T02:46:28.337Z,1.04
2022-12-03T02:47:28.396Z,1.04
2022-12-03T02:48:28.478Z,1.04
2022-12-03T02:49:28.633Z,1.04
2022-12-03T02:50:28.779Z,1.04
2022-12-03T02:51:28.884Z,1.04
2022-12-03T02:52:29.046Z,1.04
2022-12-03T02:53:29.213Z,1.04
2022-12-03T02:54:29.354Z,1.04
2022-12-03T02:55:33.426Z,1.04
2022-12-03T02:56:29.608Z,1.04
2022-12-03T02:57:29.716Z,1.04
2022-12-03T02:58:29.830Z,1.04
2022-12-03T02:59:29.959Z,1.04
2022-12-03T03:00:30.619Z,1.04
2022-12-03T03:01:30.279Z,1.04
2022-12-03T03:02:30.401Z,1.04
2022-12-03T03:03:30.529Z,1.04
2022-12-03T03:04:30.675Z,1.04
2022-12-03T03:05:30.768Z,1.04
2022-12-03T03:06:30.871Z,1.04
2022-12-03T03:07:31.102Z,1.04
2022-12-03T03:08:31.179Z,1.04
2022-12-03T03:09:31.337Z,1.04
2022-12-03T03:10:31.471Z,1.04
2022-12-03T03:11:31.632Z,1.04
2022-12-03T03:12:34.796Z,1.04
2022-12-03T03:13:31.872Z,1.04
2022-12-03T03:14:32.043Z,1.04
2022-12-03T03:15:32.708Z,1.04
2022-12-03T03:16:32.351Z,1.04
2022-12-03T03:17:32.443Z,1.04
2022-12-03T03:18:32.601Z,1.04
2022-12-03T03:19:32.691Z,1.04
2022-12-03T03:20:32.892Z,1.04
2022-12-03T03:21:32.987Z,1.04
2022-12-03T03:22:33.097Z,1.04
2022-12-03T03:23:33.248Z,1.04
2022-12-03T03:24:33.391Z,1.04
2022-12-03T03:25:33.548Z,1.04
2022-12-03T03:26:33.695Z,1.04
2022-12-03T03:27:33.881Z,1.04
2022-12-03T03:28:34.016Z,1.04
2022-12-03T03:29:34.725Z,1.04
2022-12-03T03:30:34.298Z,1.04
2022-12-03T03:31:34.594Z,1.04
2022-12-03T03:32:34.555Z,1.04
2022-12-03T03:33:34.726Z,1.04
2022-12-03T03:34:34.860Z,1.04
2022-12-03T03:35:35.008Z,1.04
2022-12-03T03:36:35.155Z,1.04
2022-12-03T03:37:35.315Z,1.04
2022-12-03T03:38:35.470Z,1.04
2022-12-03T03:39:35.566Z,1.04
2022-12-03T03:40:35.667Z,1.04
2022-12-03T03:41:35.825Z,1.04
2022-12-03T03:42:35.971Z,1.04
2022-12-03T03:43:36.130Z,1.04
2022-12-03T03:44:36.856Z,1.04
2022-12-03T03:45:36.494Z,1.04
2022-12-03T03:46:36.537Z,1.04
2022-12-03T03:47:36.685Z,1.04
2022-12-03T03:48:36.835Z,1.04
2022-12-03T03:49:36.959Z,1.04
2022-12-03T03:50:37.033Z,1.04
2022-12-03T03:51:37.177Z,1.04
2022-12-03T03:52:37.345Z,1.04
2022-12-03T03:53:37.441Z,1.04
2022-12-03T03:54:37.589Z,1.04
2022-12-03T03:55:37.743Z,1.04
2022-12-03T03:56:37.842Z,1.04
2022-12-03T03:57:37.954Z,1.04
2022-12-03T03:58:38.050Z,1.04
2022-12-03T03:59:38.765Z,1.04
2022-12-03T04:00:38.343Z,1.04
2022-12-03T04:01:38.574Z,1.04
2022-12-03T04:02:38.583Z,1.04
2022-12-03T04:03:38.787Z,1.04
2022-12-03T04:04:38.997Z,1.04
2022-12-03T04:05:39.077Z,1.04
2022-12-03T04:06:39.255Z,1.04
2022-12-03T04:07:39.488Z,1.04
2022-12-03T04:08:39.562Z,1.04
2022-12-03T04:09:39.723Z,1.04
2022-12-03T04:10:39.858Z,1.04
2022-12-03T04:11:40.011Z,1.04
2022-12-03T04:12:40.161Z,1.04
2022-12-03T04:13:40.318Z,1.04
2022-12-03T04:14:41.035Z,1.04
2022-12-03T04:15:40.618Z,1.04
2022-12-03T04:16:40.814Z,1.04
2022-12-03T04:17:40.861Z,1.04
2022-12-03T04:18:41.021Z,1.04
2022-12-03T04:19:41.188Z,1.04
2022-12-03T04:20:41.342Z,1.04
2022-12-03T04:21:41.477Z,1.04
2022-12-03T04:22:41.625Z,1.04
2022-12-03T04:23:41.813Z,1.04
2022-12-03T04:24:41.930Z,1.04
2022-12-03T04:25:42.082Z,1.04
2022-12-03T04:26:42.232Z,1.04
2022-12-03T04:27:42.373Z,1.04
2022-12-03T04:28:42.503Z,1.04
2022-12-03T04:29:43.254Z,1.04
2022-12-03T04:30:42.817Z,1.04
2022-12-03T04:31:42.892Z,1.04
2022-12-03T04:32:43.060Z,1.04
2022-12-03T04:33:43.190Z,1.04
2022-12-03T04:34:43.418Z,1.04
2022-12-03T04:35:44.190Z,1.04
2022-12-03T04:36:43.742Z,1.04
2022-12-03T04:37:44.380Z,1.04
2022-12-03T04:38:44.001Z,1.04
2022-12-03T04:39:44.157Z,1.04
2022-12-03T04:40:44.304Z,1.04
2022-12-03T04:41:44.463Z,1.04
2022-12-03T04:42:44.605Z,1.04
2022-12-03T04:43:44.713Z,1.04
2022-12-03T04:44:45.375Z,1.04
2022-12-03T04:45:45.024Z,1.04
2022-12-03T04:46:45.058Z,1.04
2022-12-03T04:47:45.203Z,1.04
2022-12-03T04:48:45.375Z,1.04
2022-12-03T04:49:45.542Z,1.04
2022-12-03T04:50:45.629Z,1.04
2022-12-03T04:51:45.783Z,1.04
2022-12-03T04:52:45.916Z,1.04
2022-12-03T04:53:46.433Z,1.04
2022-12-03T04:54:46.197Z,1.04
2022-12-03T04:55:46.333Z,1.04
2022-12-03T04:56:46.513Z,1.04
2022-12-03T04:57:46.619Z,1.04
2022-12-03T04:58:46.785Z,1.04
2022-12-03T04:59:47.470Z,1.04
2022-12-03T05:00:47.120Z,1.04
2022-12-03T05:01:47.354Z,1.04
2022-12-03T05:02:47.472Z,1.04
2022-12-03T05:03:47.588Z,1.04
2022-12-03T05:04:47.747Z,1.04
2022-12-03T05:05:47.894Z,1.04
2022-12-03T05:06:48.058Z,1.04
2022-12-03T05:07:48.240Z,1.04
2022-12-03T05:08:48.358Z,1.04
2022-12-03T05:09:48.502Z,1.04
2022-12-03T05:10:48.651Z,1.04
2022-12-03T05:11:48.809Z,1.04
2022-12-03T05:12:48.946Z,1.04
2022-12-03T05:13:49.101Z,1.04
2022-12-03T05:14:50.146Z,1.04
2022-12-03T05:15:49.392Z,1.04
2022-12-03T05:16:49.537Z,1.04
2022-12-03T05:17:49.618Z,1.04
2022-12-03T05:18:49.774Z,1.04
2022-12-03T05:19:49.906Z,1.04
2022-12-03T05:20:53.405Z,1.04
2022-12-03T05:21:50.229Z,1.04
2022-12-03T05:22:50.359Z,1.04
2022-12-03T05:23:50.513Z,1.04
2022-12-03T05:24:50.799Z,1.04
2022-12-03T05:25:50.779Z,1.04
2022-12-03T05:26:50.936Z,1.04
2022-12-03T05:27:51.091Z,1.04
2022-12-03T05:28:51.218Z,1.04
2022-12-03T05:29:51.975Z,1.04
2022-12-03T05:30:51.549Z,1.04
2022-12-03T05:31:51.685Z,1.04
2022-12-03T05:32:51.819Z,1.04
2022-12-03T05:33:51.989Z,1.04
2022-12-03T05:34:52.550Z,1.04
2022-12-03T05:35:52.284Z,1.04
2022-12-03T05:36:52.433Z,1.04
2022-12-03T05:37:52.612Z,1.04
2022-12-03T05:38:52.751Z,1.04
2022-12-03T05:39:52.890Z,1.04
2022-12-03T05:40:53.040Z,1.04
2022-12-03T05:41:53.204Z,1.04
2022-12-03T05:42:53.348Z,1.04
2022-12-03T05:43:53.523Z,1.04
2022-12-03T05:44:54.481Z,1.04
2022-12-03T05:45:53.837Z,1.04
2022-12-03T05:46:53.899Z,1.04
2022-12-03T05:47:54.051Z,1.04
2022-12-03T05:48:54.200Z,1.04
2022-12-03T05:49:54.342Z,1.04
2022-12-03T05:50:54.503Z,1.04
2022-12-03T05:51:58.366Z,1.04
2022-12-03T05:52:54.760Z,1.04
2022-12-03T05:53:54.906Z,1.04
2022-12-03T05:54:55.255Z,1.04
2022-12-03T05:55:55.217Z,1.04
2022-12-03T05:56:55.362Z,1.04
2022-12-03T05:57:55.517Z,1.04
2022-12-03T05:58:55.669Z,1.04
2022-12-03T05:59:56.346Z,1.04
2022-12-03T06:00:55.960Z,1.04
2022-12-03T06:01:56.129Z,1.04
2022-12-03T06:02:56.390Z,1.04
2022-12-03T06:03:56.508Z,1.04
2022-12-03T06:04:56.664Z,1.04
2022-12-03T06:05:56.734Z,1.04
2022-12-03T06:06:56.874Z,1.04
2022-12-03T06:07:57.083Z,1.04
2022-12-03T06:08:57.176Z,1.04
2022-12-03T06:09:57.339Z,2
2022-12-03T06:10:57.486Z,2
2022-12-03T06:11:57.623Z,2
2022-12-03T06:12:57.814Z,2
2022-12-03T06:13:57.944Z,2
2022-12-03T06:14:58.761Z,2
2022-12-03T06:15:58.280Z,3.04
2022-12-03T06:16:58.400Z,3.04
2022-12-03T06:17:58.507Z,4
2022-12-03T06:18:58.653Z,4
2022-12-03T06:19:58.810Z,5.04
2022-12-03T06:20:58.943Z,5.04
2022-12-03T06:21:59.045Z,6
2022-12-03T06:22:59.211Z,7.04
2022-12-03T06:23:59.349Z,8
2022-12-03T06:25:03.500Z,9.04
2022-12-03T06:25:59.648Z,10
2022-12-03T06:26:59.809Z,12
2022-12-03T06:27:59.960Z,14
2022-12-03T06:29:00.075Z,16
2022-12-03T06:30:00.884Z,19.04
2022-12-03T06:31:00.451Z,21.04
2022-12-03T06:32:00.462Z,24
2022-12-03T06:33:00.562Z,29.04
2022-12-03T06:34:00.730Z,33.04
2022-12-03T06:35:00.881Z,38
2022-12-03T06:36:01.014Z,44
2022-12-03T06:37:01.125Z,48
2022-12-03T06:38:01.276Z,54
2022-12-03T06:39:01.363Z,63.04
2022-12-03T06:40:01.530Z,72
2022-12-03T06:41:01.677Z,83.04
2022-12-03T06:42:01.769Z,93.04
2022-12-03T06:43:01.932Z,79.04
2022-12-03T06:44:02.034Z,89.04
2022-12-03T06:45:02.753Z,96
2022-12-03T06:46:02.301Z,104
2022-12-03T06:47:02.490Z,116
2022-12-03T06:48:02.592Z,124
2022-12-03T06:49:02.746Z,134
2022-12-03T06:50:02.906Z,145.04
2022-12-03T06:51:03.030Z,154
2022-12-03T06:52:03.134Z,157.04
2022-12-03T06:53:03.247Z,166.08
2022-12-03T06:54:03.351Z,181.12
2022-12-03T06:55:03.493Z,203.04
2022-12-03T06:56:03.676Z,221.12
2022-12-03T06:57:03.809Z,235.04
2022-12-03T06:58:03.945Z,246.08
2022-12-03T06:59:04.110Z,267.04
2022-12-03T07:00:04.817Z,302.08
2022-12-03T07:01:04.390Z,331.2
2022-12-03T07:02:04.643Z,349.12
2022-12-03T07:03:04.789Z,368
2022-12-03T07:04:04.859Z,388.16
2022-12-03T07:05:05.012Z,408
2022-12-03T07:06:05.165Z,437.12
2022-12-03T07:07:05.325Z,468.16
2022-12-03T07:08:05.520Z,512
2022-12-03T07:09:05.621Z,563.2
2022-12-03T07:10:05.723Z,634.24
2022-12-03T07:11:05.801Z,687.36
2022-12-03T07:12:05.951Z,701.44
2022-12-03T07:13:06.069Z,715.52
2022-12-03T07:14:06.192Z,753.28
2022-12-03T07:15:06.288Z,813.44
2022-12-03T07:16:06.460Z,840.32
2022-12-03T07:17:06.543Z,855.04
2022-12-03T07:18:06.720Z,859.52
2022-12-03T07:19:06.861Z,847.36
2022-12-03T07:20:06.998Z,829.44
2022-12-03T07:21:07.214Z,816
2022-12-03T07:22:07.329Z,827.52
2022-12-03T07:23:07.490Z,860.16
2022-12-03T07:24:07.666Z,895.36
2022-12-03T07:25:07.802Z,934.4
2022-12-03T07:26:07.941Z,987.52
2022-12-03T07:27:08.091Z,1026.56
2022-12-03T07:28:08.242Z,1075.2
2022-12-03T07:29:08.393Z,1105.28
2022-12-03T07:30:09.060Z,1137.28
2022-12-03T07:31:08.740Z,1184
2022-12-03T07:32:08.797Z,1224.32
2022-12-03T07:33:08.955Z,1261.44
2022-12-03T07:34:09.101Z,1377.28
2022-12-03T07:35:09.257Z,1455.36
2022-12-03T07:36:09.405Z,1602.56
2022-12-03T07:37:09.515Z,1710.08
2022-12-03T07:38:09.661Z,1866.24
2022-12-03T07:39:09.814Z,1994.24
2022-12-03T07:40:09.898Z,2128.64
2022-12-03T07:41:10.054Z,2280.96
2022-12-03T07:42:10.205Z,2373.12
2022-12-03T07:43:10.314Z,2478.08
2022-12-03T07:44:14.154Z,2708.48
2022-12-03T07:45:10.610Z,2851.84
2022-12-03T07:46:10.781Z,2961.92
2022-12-03T07:47:10.993Z,3041.28
2022-12-03T07:48:11.089Z,3159.04
2022-12-03T07:49:11.222Z,3361.28
2022-12-03T07:50:11.389Z,3499.52
2022-12-03T07:51:15.092Z,3604.48
2022-12-03T07:52:11.675Z,3755.52
2022-12-03T07:53:11.838Z,3873.28
2022-12-03T07:54:11.991Z,3988.48
2022-12-03T07:55:12.134Z,4083.2
2022-12-03T07:56:12.281Z,4167.68
2022-12-03T07:57:12.432Z,4344.32
2022-12-03T07:58:12.569Z,4523.52
2022-12-03T07:59:12.691Z,4707.84
2022-12-03T08:00:13.390Z,4784.64
2022-12-03T08:01:13.044Z,4805.12
2022-12-03T08:02:15.721Z,4787.2
2022-12-03T08:03:13.193Z,4766.72
2022-12-03T08:04:13.348Z,4764.16
2022-12-03T08:05:13.502Z,4782.08
2022-12-03T08:06:13.639Z,4889.6
2022-12-03T08:07:13.791Z,4992
2022-12-03T08:08:13.999Z,5053.44
2022-12-03T08:09:16.170Z,5081.6
2022-12-03T08:10:14.167Z,5053.44
2022-12-03T08:11:14.318Z,4910.08
2022-12-03T08:12:14.451Z,4792.32
2022-12-03T08:13:14.586Z,4784.64
2022-12-03T08:14:14.698Z,4940.8
2022-12-03T08:15:15.433Z,5043.2
2022-12-03T08:16:15.037Z,5143.04
2022-12-03T08:17:15.122Z,5335.04
2022-12-03T08:18:15.282Z,5575.68
2022-12-03T08:19:15.413Z,5959.68
2022-12-03T08:20:15.557Z,6231.04
2022-12-03T08:21:15.711Z,6481.92
2022-12-03T08:22:15.876Z,6758.4
2022-12-03T08:23:16.026Z,6952.96
2022-12-03T08:24:16.167Z,7260.16
2022-12-03T08:25:16.319Z,7644.16
2022-12-03T08:26:16.425Z,7710.72
2022-12-03T08:27:16.586Z,7526.4
2022-12-03T08:28:16.728Z,7326.72
2022-12-03T08:29:16.897Z,7198.72
2022-12-03T08:30:17.014Z,7101.44
2022-12-03T08:31:17.227Z,6922.24
2022-12-03T08:32:17.362Z,6702.08
2022-12-03T08:33:17.447Z,6548.48
2022-12-03T08:34:17.541Z,6420.48
2022-12-03T08:35:17.669Z,6277.12
2022-12-03T08:36:17.822Z,6092.8
2022-12-03T08:37:17.977Z,5969.92
2022-12-03T08:38:18.133Z,5898.24
2022-12-03T08:39:18.284Z,5990.4
2022-12-03T08:40:18.434Z,6016
2022-12-03T08:41:18.584Z,6082.56
2022-12-03T08:42:18.746Z,6138.88
2022-12-03T08:43:18.899Z,6062.08
2022-12-03T08:44:19.091Z,5847.04
2022-12-03T08:45:19.567Z,5698.56
2022-12-03T08:46:19.447Z,5509.12
2022-12-03T08:47:19.482Z,5437.44
2022-12-03T08:48:19.544Z,5370.88
2022-12-03T08:49:19.704Z,5194.24
2022-12-03T08:50:19.824Z,4992
2022-12-03T08:51:19.973Z,4736
2022-12-03T08:52:20.107Z,4654.08
2022-12-03T08:53:20.253Z,4597.76
2022-12-03T08:54:20.417Z,4643.84
2022-12-03T08:55:20.568Z,4674.56
2022-12-03T08:56:20.718Z,4723.2
2022-12-03T08:57:20.865Z,4800
2022-12-03T08:58:20.973Z,4792.32
2022-12-03T08:59:21.127Z,4838.4
2022-12-03T09:00:21.875Z,4966.4
2022-12-03T09:01:21.541Z,5120
2022-12-03T09:02:21.531Z,5178.88
2022-12-03T09:03:21.682Z,5058.56
2022-12-03T09:04:21.915Z,5025.28
2022-12-03T09:05:21.931Z,5153.28
2022-12-03T09:06:22.105Z,5150.72
2022-12-03T09:07:22.238Z,5076.48
2022-12-03T09:08:22.395Z,5043.2
2022-12-03T09:09:22.531Z,4933.12
2022-12-03T09:10:22.680Z,4789.76
2022-12-03T09:11:22.784Z,4712.96
2022-12-03T09:12:22.891Z,4651.52
2022-12-03T09:13:22.983Z,4554.24
2022-12-03T09:14:23.140Z,4641.28
2022-12-03T09:15:23.816Z,4715.52
2022-12-03T09:16:23.421Z,4789.76
2022-12-03T09:17:23.533Z,4784.64
2022-12-03T09:18:23.711Z,4628.48
2022-12-03T09:19:23.848Z,4352
2022-12-03T09:20:24.002Z,4259.84
2022-12-03T09:21:24.086Z,4170.24
2022-12-03T09:22:24.254Z,3911.68
2022-12-03T09:23:24.351Z,3806.72
2022-12-03T09:24:24.526Z,3714.56
2022-12-03T09:25:24.653Z,3558.4
2022-12-03T09:26:24.824Z,3404.8
2022-12-03T09:27:24.955Z,3194.88
2022-12-03T09:28:25.123Z,2918.4
2022-12-03T09:29:25.258Z,2580.48
2022-12-03T09:30:25.935Z,2400
2022-12-03T09:31:25.628Z,2362.88
2022-12-03T09:32:25.783Z,2373.12
2022-12-03T09:33:25.821Z,2408.96
2022-12-03T09:34:25.977Z,2391.04
2022-12-03T09:35:26.122Z,2400
2022-12-03T09:36:26.223Z,2423.04
2022-12-03T09:37:26.382Z,2442.24
2022-12-03T09:38:26.522Z,2487.04
2022-12-03T09:39:26.673Z,2446.08
2022-12-03T09:40:26.836Z,2447.36
2022-12-03T09:41:26.976Z,2528
2022-12-03T09:42:27.081Z,2644.48
2022-12-03T09:43:43.306Z,2869.76
2022-12-03T09:44:27.444Z,3105.28
2022-12-03T09:45:28.052Z,3356.16
2022-12-03T09:46:27.799Z,3709.44
2022-12-03T09:47:27.882Z,3788.8
2022-12-03T09:48:28.042Z,3819.52
2022-12-03T09:49:28.193Z,3865.6
2022-12-03T09:50:28.333Z,3824.64
2022-12-03T09:51:28.485Z,3709.44
2022-12-03T09:52:28.659Z,3560.96
2022-12-03T09:53:28.796Z,3479.04
2022-12-03T09:54:28.977Z,3425.28
2022-12-03T09:55:29.089Z,3573.76
2022-12-03T09:56:29.284Z,3822.08
2022-12-03T09:57:29.417Z,4211.2
2022-12-03T09:58:34.421Z,4403.2
2022-12-03T09:59:29.721Z,4508.16
2022-12-03T10:00:30.360Z,4564.48
2022-12-03T10:01:30.619Z,4544
2022-12-03T10:02:30.153Z,4311.04
2022-12-03T10:03:30.287Z,4131.84
2022-12-03T10:04:30.563Z,4129.28
2022-12-03T10:05:30.579Z,4367.36
2022-12-03T10:06:30.706Z,4584.96
2022-12-03T10:07:30.931Z,4592.64
2022-12-03T10:08:32.416Z,4605.44
2022-12-03T10:09:31.172Z,4815.36
2022-12-03T10:10:31.329Z,5283.84
2022-12-03T10:11:31.419Z,5647.36
2022-12-03T10:12:31.568Z,5893.12
2022-12-03T10:13:31.755Z,5944.32
2022-12-03T10:14:31.816Z,5980.16
2022-12-03T10:15:32.590Z,5898.24
2022-12-03T10:16:32.153Z,5821.44
2022-12-03T10:17:32.285Z,6031.36
2022-12-03T10:18:35.656Z,5975.04
2022-12-03T10:19:32.595Z,5765.12
2022-12-03T10:20:32.731Z,5719.04
2022-12-03T10:21:32.899Z,5903.36
2022-12-03T10:22:33.011Z,6210.56
2022-12-03T10:23:33.135Z,6717.44
2022-12-03T10:24:33.231Z,7280.64
2022-12-03T10:25:33.320Z,7838.72
2022-12-03T10:26:33.574Z,8115.2
2022-12-03T10:27:33.624Z,8104.96
2022-12-03T10:28:33.718Z,7848.96
2022-12-03T10:29:34.642Z,7915.52
2022-12-03T10:30:34.099Z,8135.68
2022-12-03T10:31:34.205Z,8458.24
2022-12-03T10:32:34.366Z,8842.24
2022-12-03T10:33:34.472Z,8960
2022-12-03T10:34:34.602Z,9241.6
2022-12-03T10:35:34.712Z,9267.2
2022-12-03T10:36:34.876Z,9287.68
2022-12-03T10:37:35.009Z,9405.439
2022-12-03T10:38:35.159Z,9180.16
2022-12-03T10:39:35.312Z,8724.479
2022-12-03T10:40:35.475Z,8560.64
2022-12-03T10:41:35.617Z,8576
2022-12-03T10:42:35.769Z,8724.479
2022-12-03T10:43:35.935Z,8816.64
2022-12-03T10:44:36.609Z,8770.56
2022-12-03T10:45:36.164Z,8673.28
2022-12-03T10:46:36.466Z,8729.6
2022-12-03T10:47:36.609Z,8448
2022-12-03T10:48:36.633Z,8166.4
2022-12-03T10:49:36.795Z,7874.56
2022-12-03T10:50:36.919Z,7592.96
2022-12-03T10:51:37.081Z,7424
2022-12-03T10:52:37.236Z,7229.44
2022-12-03T10:53:37.379Z,7260.16
2022-12-03T10:54:37.542Z,7009.28
2022-12-03T10:55:37.681Z,6676.48
2022-12-03T10:56:37.837Z,6799.36
2022-12-03T10:57:41.139Z,7219.2
2022-12-03T10:58:38.143Z,7132.16
2022-12-03T10:59:38.893Z,6876.16
2022-12-03T11:00:38.377Z,6563.84
2022-12-03T11:01:38.629Z,6589.44
2022-12-03T11:02:38.683Z,7019.52
2022-12-03T11:03:38.931Z,7034.88
2022-12-03T11:04:38.947Z,6400
2022-12-03T11:05:39.130Z,6103.04
2022-12-03T11:06:39.233Z,6369.28
2022-12-03T11:07:39.438Z,6937.6
2022-12-03T11:08:39.555Z,7193.6
2022-12-03T11:09:39.699Z,7152.64
2022-12-03T11:10:39.800Z,7260.16
2022-12-03T11:11:39.968Z,7034.88
2022-12-03T11:12:40.106Z,6758.4
2022-12-03T11:13:40.256Z,6732.8
2022-12-03T11:14:40.944Z,6963.2
2022-12-03T11:15:40.585Z,7040
2022-12-03T11:16:40.684Z,7014.4
2022-12-03T11:17:40.830Z,7101.44
2022-12-03T11:18:40.962Z,6927.36
2022-12-03T11:19:41.127Z,6794.24
2022-12-03T11:20:41.220Z,6927.36
2022-12-03T11:21:41.391Z,6784
2022-12-03T11:22:41.546Z,6568.96
2022-12-03T11:23:41.702Z,6415.36
2022-12-03T11:24:41.849Z,6200.32
2022-12-03T11:25:41.976Z,6297.6
2022-12-03T11:26:42.079Z,6415.36
2022-12-03T11:27:42.234Z,6323.2
2022-12-03T11:28:42.332Z,6092.8
2022-12-03T11:29:43.039Z,6062.08
2022-12-03T11:30:42.659Z,6123.52
2022-12-03T11:31:42.834Z,6379.52
2022-12-03T11:32:42.836Z,6609.92
2022-12-03T11:33:43.055Z,6528
2022-12-03T11:34:43.141Z,6410.24
2022-12-03T11:35:43.304Z,6343.68
2022-12-03T11:37:00.976Z,6164.48
2022-12-03T11:37:43.555Z,6179.84
2022-12-03T11:38:47.480Z,6369.28
2022-12-03T11:39:43.885Z,6522.88
2022-12-03T11:40:44.009Z,6548.48
2022-12-03T11:41:44.242Z,6568.96
2022-12-03T11:42:44.254Z,6533.12
2022-12-03T11:43:44.413Z,6420.48
2022-12-03T11:44:45.120Z,6272
2022-12-03T11:45:44.698Z,6164.48
2022-12-03T11:46:44.900Z,6046.72
2022-12-03T11:47:45.018Z,6067.2
2022-12-03T11:48:45.153Z,6272
2022-12-03T11:49:45.306Z,6451.2
2022-12-03T11:50:45.414Z,6405.12
2022-12-03T11:51:45.568Z,6456.32
2022-12-03T11:52:45.709Z,6005.76
2022-12-03T11:53:45.867Z,5770.24
2022-12-03T11:54:45.970Z,5724.16
2022-12-03T11:55:46.120Z,5457.92
2022-12-03T11:56:46.279Z,5376
2022-12-03T11:57:46.454Z,5043.2
2022-12-03T11:58:46.571Z,4807.68
2022-12-03T11:59:47.202Z,4833.28
2022-12-03T12:00:46.870Z,4864
2022-12-03T12:01:46.970Z,4940.8
2022-12-03T12:02:47.177Z,4856.32
2022-12-03T12:03:47.470Z,4769.28
2022-12-03T12:04:47.388Z,4820.48
2022-12-03T12:05:47.530Z,4805.12
2022-12-03T12:06:53.091Z,4797.44
2022-12-03T12:07:47.906Z,4794.88
2022-12-03T12:08:47.897Z,4661.76
2022-12-03T12:09:48.060Z,4546.56
2022-12-03T12:10:48.186Z,4500.48
2022-12-03T12:11:48.343Z,4533.76
2022-12-03T12:12:54.484Z,4572.16
2022-12-03T12:13:48.642Z,4715.52
2022-12-03T12:14:49.515Z,4922.88
2022-12-03T12:15:49.049Z,5061.12
2022-12-03T12:16:49.139Z,5043.2
2022-12-03T12:17:49.206Z,5102.08
2022-12-03T12:18:53.784Z,5171.2
2022-12-03T12:19:54.162Z,4943.36
2022-12-03T12:20:49.594Z,4802.56
2022-12-03T12:21:49.742Z,4887.04
2022-12-03T12:22:49.899Z,4997.12
2022-12-03T12:23:50.059Z,5050.88
2022-12-03T12:24:50.148Z,5002.24
2022-12-03T12:25:54.056Z,4851.2
2022-12-03T12:26:50.401Z,4756.48
2022-12-03T12:27:50.545Z,4815.36
2022-12-03T12:28:50.654Z,4797.44
2022-12-03T12:29:50.920Z,4710.4
2022-12-03T12:30:50.923Z,4492.8
2022-12-03T12:31:54.097Z,4546.56
2022-12-03T12:32:51.229Z,4710.4
2022-12-03T12:33:51.328Z,4618.24
2022-12-03T12:34:51.473Z,4492.8
2022-12-03T12:35:51.630Z,4433.92
2022-12-03T12:36:51.770Z,4464.64
2022-12-03T12:37:58.419Z,4500.48
2022-12-03T12:38:52.091Z,4536.32
2022-12-03T12:39:52.405Z,4428.8
2022-12-03T12:40:52.329Z,4216.32
2022-12-03T12:41:52.469Z,4149.76
2022-12-03T12:42:52.689Z,4185.6
2022-12-03T12:43:52.841Z,4142.08
2022-12-03T12:44:53.615Z,4147.2
2022-12-03T12:45:53.129Z,4165.12
2022-12-03T12:46:53.251Z,4011.52
2022-12-03T12:47:53.398Z,3804.16
2022-12-03T12:48:58.045Z,3717.12
2022-12-03T12:49:53.989Z,3732.48
2022-12-03T12:50:53.796Z,3719.68